createdAt,value
2019-02-08T00:01:43.458Z,36.47
2019-02-08T00:04:13.839Z,38.47
2019-02-08T00:06:44.130Z,36.27
2019-02-08T00:09:14.457Z,34.97
2019-02-08T00:11:44.750Z,33.83
2019-02-08T00:14:15.053Z,35.00
2019-02-08T00:16:45.340Z,33.17
2019-02-08T00:19:15.618Z,30.53
2019-02-08T00:21:45.900Z,32.20
2019-02-08T00:24:16.244Z,36.67
2019-02-08T00:26:46.518Z,33.87
2019-02-08T00:29:16.808Z,34.73
2019-02-08T00:31:47.086Z,32.90
2019-02-08T00:34:17.399Z,36.20
2019-02-08T00:36:47.690Z,33.17
2019-02-08T00:39:17.967Z,34.70
2019-02-08T00:41:48.619Z,28.80
2019-02-08T00:44:19.348Z,40.93
2019-02-08T00:46:49.854Z,30.30
2019-02-08T00:49:20.128Z,29.13
2019-02-08T00:51:50.424Z,32.70
2019-02-08T00:54:20.778Z,31.07
2019-02-08T00:56:51.404Z,32.97
2019-02-08T00:59:21.688Z,34.30
2019-02-08T01:01:51.972Z,34.67
2019-02-08T01:04:22.253Z,34.13
2019-02-08T01:06:52.574Z,37.60
2019-02-08T01:09:22.868Z,31.90
2019-02-08T01:11:53.433Z,30.27
2019-02-08T01:14:23.728Z,31.57
2019-02-08T01:16:54.032Z,32.17
2019-02-08T01:19:24.320Z,32.63
2019-02-08T01:21:54.615Z,31.50
2019-02-08T01:24:24.917Z,29.50
2019-02-08T01:26:56.265Z,30.63
2019-02-08T01:29:26.561Z,34.07
2019-02-08T01:31:56.859Z,34.60
2019-02-08T01:34:27.156Z,34.70
2019-02-08T01:36:57.590Z,34.70
2019-02-08T01:39:27.856Z,30.13
2019-02-08T01:41:58.129Z,33.43
2019-02-08T01:44:28.438Z,29.77
2019-02-08T01:46:58.716Z,30.50
2019-02-08T01:49:28.982Z,31.77
2019-02-08T01:51:59.274Z,37.00
2019-02-08T01:54:29.596Z,35.43
2019-02-08T01:56:59.877Z,31.73
2019-02-08T01:59:30.156Z,31.10
2019-02-08T02:02:00.456Z,35.00
2019-02-08T02:04:30.751Z,29.87
2019-02-08T02:07:01.092Z,30.60
2019-02-08T02:09:31.419Z,32.17
2019-02-08T02:12:01.697Z,30.60
2019-02-08T02:14:32.154Z,27.77
2019-02-08T02:17:02.594Z,26.57
2019-02-08T02:19:32.878Z,30.97
2019-02-08T02:22:03.163Z,32.30
2019-02-08T02:24:33.460Z,28.63
2019-02-08T02:27:03.787Z,30.90
2019-02-08T02:29:34.135Z,28.80
2019-02-08T02:32:05.400Z,30.20
2019-02-08T02:34:35.678Z,27.20
2019-02-08T02:37:05.980Z,29.53
2019-02-08T02:39:36.301Z,32.37
2019-02-08T02:42:06.581Z,30.73
2019-02-08T02:44:36.864Z,33.40
2019-02-08T02:47:07.136Z,29.20
2019-02-08T02:49:37.461Z,30.87
2019-02-08T02:52:07.786Z,26.17
2019-02-08T02:54:38.224Z,27.30
2019-02-08T02:57:08.525Z,26.30
2019-02-08T02:59:38.827Z,28.53
2019-02-08T03:02:09.141Z,27.50
2019-02-08T03:04:39.417Z,28.57
2019-02-08T03:07:09.716Z,27.93
2019-02-08T03:09:39.991Z,29.33
2019-02-08T03:12:10.278Z,27.77
2019-02-08T03:14:40.641Z,26.93
2019-02-08T03:17:10.935Z,27.83
2019-02-08T03:19:41.239Z,27.80
2019-02-08T03:22:11.516Z,29.77
2019-02-08T03:24:41.804Z,26.67
2019-02-08T03:27:12.095Z,29.50
2019-02-08T03:29:42.428Z,27.70
2019-02-08T03:32:12.703Z,26.90
2019-02-08T03:34:42.987Z,25.03
2019-02-08T03:37:13.271Z,25.40
2019-02-08T03:39:43.606Z,30.23
2019-02-08T03:42:13.903Z,25.83
2019-02-08T03:44:44.238Z,27.47
2019-02-08T03:47:14.525Z,26.10
2019-02-08T03:49:44.817Z,22.50
2019-02-08T03:52:15.127Z,31.07
2019-02-08T03:54:45.415Z,27.30
2019-02-08T03:57:15.753Z,26.30
2019-02-08T03:59:46.051Z,27.87
2019-02-08T04:02:16.323Z,26.70
2019-02-08T04:04:46.587Z,29.73
2019-02-08T04:07:16.886Z,29.50
2019-02-08T04:09:47.283Z,27.63
2019-02-08T04:12:17.915Z,26.93
2019-02-08T04:14:48.197Z,26.43
2019-02-08T04:17:18.510Z,29.60
2019-02-08T04:19:48.860Z,23.27
2019-02-08T04:22:19.158Z,27.90
2019-02-08T04:24:49.483Z,29.27
2019-02-08T04:27:19.818Z,29.77
2019-02-08T04:29:50.088Z,25.23
2019-02-08T04:32:20.385Z,27.97
2019-02-08T04:34:50.686Z,27.23
2019-02-08T04:37:21.098Z,31.60
2019-02-08T04:39:51.439Z,25.73
2019-02-08T04:42:21.999Z,26.77
2019-02-08T04:44:52.290Z,25.90
2019-02-08T04:47:22.617Z,42.80
2019-02-08T04:49:52.909Z,27.67
2019-02-08T04:52:24.438Z,30.83
2019-02-08T04:54:54.868Z,24.27
2019-02-08T04:57:25.212Z,32.17
2019-02-08T04:59:55.774Z,48.30
2019-02-08T05:02:26.116Z,41.37
2019-02-08T05:04:56.513Z,32.53
2019-02-08T05:07:27.419Z,34.13
2019-02-08T05:09:57.832Z,37.57
2019-02-08T05:12:28.531Z,38.10
2019-02-08T05:14:58.783Z,32.13
2019-02-08T05:17:29.095Z,35.03
2019-02-08T05:19:59.383Z,38.27
2019-02-08T05:22:29.659Z,36.13
2019-02-08T05:24:59.956Z,34.53
2019-02-08T05:27:30.222Z,34.53
2019-02-08T05:30:00.551Z,35.20
2019-02-08T05:32:30.804Z,44.20
2019-02-08T05:35:01.110Z,64.67
2019-02-08T05:37:31.377Z,64.83
2019-02-08T05:40:01.776Z,58.83
2019-02-08T05:42:32.110Z,45.80
2019-02-08T05:45:02.473Z,43.03
2019-02-08T05:47:33.338Z,44.33
2019-02-08T05:50:05.238Z,43.40
2019-02-08T05:52:36.023Z,43.77
2019-02-08T05:55:10.738Z,39.47
2019-02-08T05:57:41.101Z,42.70
2019-02-08T06:00:24.927Z,33.23
2019-02-08T06:02:55.327Z,32.23
2019-02-08T06:05:25.591Z,36.40
2019-02-08T06:07:55.878Z,42.80
2019-02-08T06:10:26.190Z,42.50
2019-02-08T06:12:56.975Z,41.07
2019-02-08T06:15:27.442Z,41.57
2019-02-08T06:17:57.743Z,41.37
2019-02-08T06:20:28.034Z,49.73
2019-02-08T06:22:59.299Z,40.13
2019-02-08T06:25:29.611Z,45.37
2019-02-08T06:28:00.854Z,48.40
2019-02-08T06:30:31.642Z,49.10
2019-02-08T06:33:01.944Z,47.93
2019-02-08T06:35:32.197Z,50.63
2019-02-08T06:38:02.480Z,44.27
2019-02-08T06:40:39.305Z,44.83
2019-02-08T06:43:10.524Z,46.97
2019-02-08T06:45:40.818Z,42.47
2019-02-08T06:48:11.739Z,46.90
2019-02-08T06:50:41.999Z,49.47
2019-02-08T06:53:12.355Z,48.67
2019-02-08T06:55:42.647Z,43.53
2019-02-08T06:58:14.911Z,45.07
2019-02-08T07:00:52.112Z,41.63
2019-02-08T07:03:35.994Z,43.67
2019-02-08T07:06:10.713Z,43.40
2019-02-08T07:08:51.417Z,46.20
2019-02-08T07:11:39.460Z,47.97
2019-02-08T07:14:23.609Z,59.73
2019-02-08T07:17:13.947Z,59.13
2019-02-08T07:19:55.186Z,46.67
2019-02-08T07:22:43.600Z,48.03
2019-02-08T07:25:30.719Z,47.97
2019-02-08T07:28:08.650Z,47.00
2019-02-08T07:30:59.709Z,43.10
2019-02-08T07:33:31.650Z,44.77
2019-02-08T07:36:03.565Z,36.60
2019-02-08T07:38:38.422Z,43.43
2019-02-08T07:41:25.602Z,45.37
2019-02-08T07:43:57.552Z,49.77
2019-02-08T07:46:29.486Z,49.10
2019-02-08T07:49:01.397Z,40.57
2019-02-08T07:51:39.296Z,42.57
2019-02-08T07:54:23.353Z,38.17
2019-02-08T07:57:07.294Z,39.43
2019-02-08T07:59:42.239Z,42.93
2019-02-08T08:02:20.543Z,37.47
2019-02-08T08:05:10.568Z,39.17
2019-02-08T08:07:42.510Z,36.20
2019-02-08T08:10:28.314Z,38.67
2019-02-08T08:13:02.938Z,37.47
2019-02-08T08:15:37.859Z,40.47
2019-02-08T08:18:09.828Z,42.30
2019-02-08T08:20:41.751Z,38.93
2019-02-08T08:23:25.918Z,38.60
2019-02-08T08:26:13.267Z,41.60
2019-02-08T08:29:01.704Z,36.67
2019-02-08T08:31:35.985Z,38.10
2019-02-08T08:34:12.479Z,33.80
2019-02-08T08:37:05.443Z,37.13
2019-02-08T08:39:47.961Z,35.03
2019-02-08T08:42:21.504Z,36.13
2019-02-08T08:45:00.866Z,35.77
2019-02-08T08:47:49.347Z,32.97
2019-02-08T08:50:25.872Z,33.77
2019-02-08T08:53:05.491Z,38.07
2019-02-08T08:55:54.298Z,35.23
2019-02-08T08:58:39.772Z,30.73
2019-02-08T09:01:31.273Z,37.63
2019-02-08T09:04:25.940Z,31.13
2019-02-08T09:07:16.260Z,39.33
2019-02-08T09:10:06.266Z,31.93
2019-02-08T09:12:48.816Z,34.33
2019-02-08T09:15:37.379Z,30.10
2019-02-08T09:18:22.789Z,32.67
2019-02-08T09:21:14.276Z,34.03
2019-02-08T09:23:47.825Z,31.90
2019-02-08T09:26:27.653Z,33.10
2019-02-08T09:29:07.034Z,36.60
2019-02-08T09:32:00.111Z,34.07
2019-02-08T09:34:42.551Z,28.27
2019-02-08T09:37:25.350Z,39.77
2019-02-08T09:40:13.900Z,34.43
2019-02-08T09:43:13.185Z,32.70
2019-02-08T09:46:06.193Z,35.50
2019-02-08T09:48:57.833Z,31.73
2019-02-08T09:51:54.319Z,34.40
2019-02-08T09:54:39.388Z,34.87
2019-02-08T09:57:21.979Z,32.03
2019-02-08T10:00:04.249Z,34.90
2019-02-08T10:03:03.225Z,30.53
2019-02-08T10:05:57.268Z,33.83
2019-02-08T10:09:02.521Z,26.97
2019-02-08T10:11:53.655Z,33.70
2019-02-08T10:14:48.121Z,31.33
2019-02-08T10:17:53.591Z,31.10
2019-02-08T10:20:29.633Z,29.17
2019-02-08T10:23:25.233Z,26.17
2019-02-08T10:26:07.610Z,28.93
2019-02-08T10:29:03.806Z,31.80
2019-02-08T10:31:46.506Z,27.30
2019-02-08T10:34:20.125Z,31.77
2019-02-08T10:37:06.027Z,29.03
2019-02-08T10:40:11.129Z,26.93
2019-02-08T10:43:02.831Z,33.97
2019-02-08T10:45:57.598Z,31.93
2019-02-08T10:48:52.270Z,30.33
2019-02-08T10:51:42.287Z,30.53
2019-02-08T10:54:33.758Z,27.77
2019-02-08T10:57:27.008Z,27.87
2019-02-08T11:00:20.130Z,26.03
2019-02-08T11:03:12.057Z,27.03
2019-02-08T11:06:02.090Z,26.10
2019-02-08T11:08:38.099Z,26.50
2019-02-08T11:11:31.051Z,28.53
2019-02-08T11:14:21.150Z,26.10
2019-02-08T11:17:11.415Z,25.57
2019-02-08T11:19:40.762Z,26.40
2019-02-08T11:22:11.083Z,27.90
2019-02-08T11:24:41.353Z,23.77
2019-02-08T11:27:11.675Z,27.23
2019-02-08T11:29:41.954Z,23.80
2019-02-08T11:32:12.250Z,26.07
2019-02-08T11:34:42.518Z,29.17
2019-02-08T11:37:12.817Z,24.33
2019-02-08T11:39:43.155Z,20.57
2019-02-08T11:42:13.431Z,24.63
2019-02-08T11:44:43.728Z,26.27
2019-02-08T11:47:13.985Z,26.63
2019-02-08T11:49:44.365Z,23.20
2019-02-08T11:52:15.773Z,23.50
2019-02-08T11:54:46.063Z,26.20
2019-02-08T11:57:16.403Z,22.10
2019-02-08T11:59:47.124Z,20.37
2019-02-08T12:02:17.423Z,19.67
2019-02-08T12:04:47.716Z,22.37
2019-02-08T12:07:18.057Z,22.67
2019-02-08T12:09:48.383Z,24.03
2019-02-08T12:12:18.663Z,21.73
2019-02-08T12:14:48.998Z,19.97
2019-02-08T12:17:19.341Z,18.57
2019-02-08T12:19:49.657Z,19.13
2019-02-08T12:22:19.985Z,21.93
2019-02-08T12:24:50.262Z,20.67
2019-02-08T12:27:20.583Z,22.10
2019-02-08T12:29:50.855Z,23.03
2019-02-08T12:32:21.157Z,20.93
2019-02-08T12:34:51.450Z,19.47
2019-02-08T12:37:21.737Z,23.33
2019-02-08T12:39:52.005Z,20.93
2019-02-08T12:42:22.303Z,20.20
2019-02-08T12:44:52.622Z,21.30
2019-02-08T12:47:22.920Z,21.00
2019-02-08T12:49:53.193Z,20.60
2019-02-08T12:52:23.473Z,19.57
2019-02-08T12:54:53.985Z,18.77
2019-02-08T12:57:24.370Z,20.43
2019-02-08T12:59:54.720Z,15.70
2019-02-08T13:02:24.998Z,17.07
2019-02-08T13:04:55.292Z,18.80
2019-02-08T13:07:25.574Z,16.50
2019-02-08T13:09:55.870Z,18.27
2019-02-08T13:12:26.184Z,17.47
2019-02-08T13:14:56.447Z,18.77
2019-02-08T13:17:26.731Z,19.50
2019-02-08T13:19:57.005Z,15.87
2019-02-08T13:22:27.900Z,15.93
2019-02-08T13:24:58.176Z,14.60
2019-02-08T13:27:29.556Z,18.10
2019-02-08T13:29:59.863Z,21.63
2019-02-08T13:32:30.143Z,17.87
2019-02-08T13:35:00.470Z,19.10
2019-02-08T13:37:33.480Z,16.20
2019-02-08T13:40:05.601Z,19.27
2019-02-08T13:42:35.923Z,18.17
2019-02-08T13:45:09.541Z,19.07
2019-02-08T13:47:39.850Z,26.23
2019-02-08T13:50:16.002Z,18.87
2019-02-08T13:52:46.284Z,14.83
2019-02-08T13:55:19.368Z,18.63
2019-02-08T13:57:49.646Z,15.40
2019-02-08T14:00:39.833Z,15.30
2019-02-08T14:03:10.129Z,12.50
2019-02-08T14:05:40.450Z,15.90
2019-02-08T14:08:10.892Z,15.13
2019-02-08T14:10:41.336Z,14.17
2019-02-08T14:13:11.608Z,12.60
2019-02-08T14:15:41.882Z,13.17
2019-02-08T14:18:12.211Z,17.47
2019-02-08T14:20:42.495Z,18.33
2019-02-08T14:23:12.798Z,15.10
2019-02-08T14:25:43.056Z,17.77
2019-02-08T14:28:13.589Z,14.53
2019-02-08T14:30:44.643Z,13.43
2019-02-08T14:33:15.380Z,14.80
2019-02-08T14:35:45.758Z,17.20
2019-02-08T14:38:19.027Z,23.67
2019-02-08T14:40:51.223Z,18.47
2019-02-08T14:43:23.283Z,19.13
2019-02-08T14:45:54.315Z,14.13
2019-02-08T14:48:24.693Z,18.30
2019-02-08T14:50:55.073Z,15.13
2019-02-08T14:53:25.392Z,17.37
2019-02-08T14:55:55.692Z,15.80
2019-02-08T14:58:26.013Z,19.57
2019-02-08T15:00:56.334Z,17.20
2019-02-08T15:03:26.661Z,22.93
2019-02-08T15:05:56.968Z,20.17
2019-02-08T15:08:27.264Z,33.60
2019-02-08T15:10:58.117Z,69.00
2019-02-08T15:13:28.498Z,43.10
2019-02-08T15:15:58.795Z,29.60
2019-02-08T15:18:29.105Z,27.93
2019-02-08T15:21:00.380Z,22.30
2019-02-08T15:23:30.732Z,34.80
2019-02-08T15:26:01.284Z,33.03
2019-02-08T15:28:31.601Z,34.37
2019-02-08T15:31:01.873Z,31.43
2019-02-08T15:33:32.150Z,25.37
2019-02-08T15:36:02.451Z,24.30
2019-02-08T15:38:32.739Z,25.83
2019-02-08T15:41:03.232Z,28.40
2019-02-08T15:43:34.053Z,35.67
2019-02-08T15:46:04.555Z,28.90
2019-02-08T15:48:35.387Z,28.77
2019-02-08T15:51:05.666Z,27.53
2019-02-08T15:53:35.937Z,27.17
2019-02-08T15:56:09.841Z,28.77
2019-02-08T15:58:40.283Z,26.97
2019-02-08T16:01:11.042Z,26.77
2019-02-08T16:03:41.785Z,24.27
2019-02-08T16:06:12.069Z,24.00
2019-02-08T16:08:42.420Z,28.37
2019-02-08T16:11:12.720Z,30.23
2019-02-08T16:13:43.030Z,21.03
2019-02-08T16:16:13.303Z,20.13
2019-02-08T16:18:43.662Z,22.33
2019-02-08T16:21:13.956Z,23.03
2019-02-08T16:23:44.329Z,27.00
2019-02-08T16:26:14.700Z,25.67
2019-02-08T16:28:45.016Z,23.03
2019-02-08T16:31:15.282Z,21.90
2019-02-08T16:33:45.556Z,26.03
2019-02-08T16:36:15.861Z,22.53
2019-02-08T16:38:46.199Z,23.40
2019-02-08T16:41:16.502Z,20.83
2019-02-08T16:43:47.103Z,22.60
2019-02-08T16:46:17.415Z,20.27
2019-02-08T16:48:47.816Z,21.07
2019-02-08T16:51:18.264Z,19.90
2019-02-08T16:53:53.632Z,19.77
2019-02-08T16:56:20.699Z,27.57
2019-02-08T16:58:50.972Z,32.20
2019-02-08T17:01:21.410Z,66.77
2019-02-08T17:03:51.854Z,57.60
2019-02-08T17:06:22.175Z,40.90
2019-02-08T17:08:52.442Z,51.57
2019-02-08T17:11:22.764Z,69.30
2019-02-08T17:13:53.073Z,63.97
2019-02-08T17:16:25.054Z,56.07
2019-02-08T17:18:55.388Z,64.47
2019-02-08T17:21:25.788Z,56.40
2019-02-08T17:23:56.623Z,45.93
2019-02-08T17:26:26.998Z,41.53
2019-02-08T17:28:57.284Z,49.87
2019-02-08T17:31:27.568Z,59.40
2019-02-08T17:33:57.997Z,62.53
2019-02-08T17:36:28.419Z,54.77
2019-02-08T17:38:58.709Z,52.93
2019-02-08T17:41:29.079Z,56.33
2019-02-08T17:43:59.499Z,47.03
2019-02-08T17:46:29.790Z,56.00
2019-02-08T17:49:00.380Z,44.63
2019-02-08T17:51:30.666Z,45.47
2019-02-08T17:54:01.580Z,39.43
2019-02-08T17:56:31.960Z,45.80
2019-02-08T17:59:02.395Z,42.40
2019-02-08T18:01:32.687Z,47.17
2019-02-08T18:04:03.007Z,68.47
2019-02-08T18:06:33.370Z,65.67
2019-02-08T18:09:05.332Z,51.47
2019-02-08T18:11:35.755Z,73.60
2019-02-08T18:14:06.999Z,91.87
2019-02-08T18:16:37.272Z,121.27
2019-02-08T18:19:07.619Z,158.13
2019-02-08T18:21:38.166Z,165.90
2019-02-08T18:24:08.454Z,125.93
2019-02-08T18:26:39.154Z,99.83
2019-02-08T18:29:09.454Z,91.40
2019-02-08T18:31:39.859Z,101.80
2019-02-08T18:34:10.441Z,76.93
2019-02-08T18:36:41.018Z,81.10
2019-02-08T18:39:11.362Z,117.60
2019-02-08T18:41:41.606Z,105.17
2019-02-08T18:44:11.900Z,79.23
2019-02-08T18:46:42.198Z,90.20
2019-02-08T18:49:13.450Z,72.73
2019-02-08T18:51:43.981Z,59.37
2019-02-08T18:54:14.349Z,64.67
2019-02-08T18:56:45.729Z,104.57
2019-02-08T18:59:17.088Z,163.37
2019-02-08T19:01:47.428Z,97.47
2019-02-08T19:04:17.778Z,74.77
2019-02-08T19:06:49.284Z,91.13
2019-02-08T19:09:19.613Z,132.80
2019-02-08T19:11:49.934Z,93.43
2019-02-08T19:14:21.305Z,81.97
2019-02-08T19:16:52.575Z,71.20
2019-02-08T19:19:22.945Z,59.57
2019-02-08T19:21:53.238Z,58.33
2019-02-08T19:24:23.826Z,52.43
2019-02-08T19:26:54.744Z,59.03
2019-02-08T19:29:25.541Z,67.63
2019-02-08T19:31:55.848Z,69.47
2019-02-08T19:34:26.170Z,69.43
2019-02-08T19:36:56.548Z,61.33
2019-02-08T19:39:26.842Z,54.23
2019-02-08T19:41:58.681Z,49.50
2019-02-08T19:44:28.976Z,44.83
2019-02-08T19:47:00.400Z,51.03
2019-02-08T19:49:31.913Z,48.60
2019-02-08T19:52:02.286Z,52.33
2019-02-08T19:54:33.884Z,50.47
2019-02-08T19:57:04.687Z,44.23
2019-02-08T19:59:35.681Z,46.30
2019-02-08T20:02:06.126Z,46.93
2019-02-08T20:04:37.101Z,48.43
2019-02-08T20:07:08.126Z,45.07
2019-02-08T20:09:38.547Z,44.33
2019-02-08T20:12:10.261Z,47.90
2019-02-08T20:14:40.586Z,47.20
2019-02-08T20:17:10.908Z,50.03
2019-02-08T20:19:41.226Z,46.47
2019-02-08T20:22:11.572Z,46.20
2019-02-08T20:24:42.539Z,45.87
2019-02-08T20:27:13.122Z,86.33
2019-02-08T20:29:43.428Z,65.47
2019-02-08T20:32:15.481Z,61.57
2019-02-08T20:34:58.155Z,70.00
2019-02-08T20:37:28.529Z,88.90
2019-02-08T20:39:58.939Z,75.93
2019-02-08T20:42:29.187Z,77.97
2019-02-08T20:44:59.701Z,82.47
2019-02-08T20:47:30.113Z,156.30
2019-02-08T20:50:00.515Z,101.50
2019-02-08T20:52:31.490Z,153.87
2019-02-08T20:55:01.839Z,129.23
2019-02-08T20:57:33.218Z,138.50
2019-02-08T21:00:06.625Z,127.00
2019-02-08T21:02:36.927Z,142.93
2019-02-08T21:05:07.590Z,111.07
2019-02-08T21:07:38.157Z,100.63
2019-02-08T21:10:10.975Z,97.03
2019-02-08T21:12:42.026Z,103.77
2019-02-08T21:15:20.303Z,78.13
2019-02-08T21:17:50.638Z,77.23
2019-02-08T21:20:21.132Z,64.97
2019-02-08T21:22:53.032Z,63.17
2019-02-08T21:25:37.808Z,62.83
2019-02-08T21:28:08.714Z,48.00
2019-02-08T21:30:40.027Z,66.77
2019-02-08T21:33:12.116Z,57.37
2019-02-08T21:35:42.973Z,71.20
2019-02-08T21:38:13.966Z,66.80
2019-02-08T21:40:44.305Z,63.73
2019-02-08T21:43:15.417Z,53.30
2019-02-08T21:45:46.411Z,46.23
2019-02-08T21:48:16.850Z,56.20
2019-02-08T21:50:47.833Z,49.93
2019-02-08T21:53:18.690Z,54.57
2019-02-08T21:55:49.106Z,62.23
2019-02-08T21:58:19.803Z,59.77
2019-02-08T22:00:53.178Z,60.53
2019-02-08T22:03:23.559Z,54.73
2019-02-08T22:05:59.899Z,54.70
2019-02-08T22:08:30.207Z,50.37
2019-02-08T22:11:00.587Z,44.27
2019-02-08T22:13:31.396Z,42.90
2019-02-08T22:16:01.888Z,45.20
2019-02-08T22:18:32.175Z,46.07
2019-02-08T22:21:02.492Z,56.27
2019-02-08T22:23:32.754Z,56.17
2019-02-08T22:26:03.044Z,48.80
2019-02-08T22:28:33.473Z,48.37
2019-02-08T22:31:03.762Z,141.43
2019-02-08T22:33:34.064Z,121.17
2019-02-08T22:36:04.380Z,148.70
2019-02-08T22:38:34.665Z,98.73
2019-02-08T22:41:05.084Z,58.83
2019-02-08T22:43:35.386Z,51.43
2019-02-08T22:46:05.673Z,53.40
2019-02-08T22:48:35.980Z,49.23
2019-02-08T22:51:06.271Z,41.90
2019-02-08T22:53:37.732Z,43.53
2019-02-08T22:56:08.055Z,45.37
2019-02-08T22:58:38.341Z,37.73
2019-02-08T23:01:14.784Z,32.03
2019-02-08T23:03:45.083Z,40.20
2019-02-08T23:06:15.377Z,36.30
2019-02-08T23:08:45.643Z,37.43
2019-02-08T23:11:15.942Z,35.17
2019-02-08T23:13:46.263Z,38.30
2019-02-08T23:16:16.592Z,41.43
2019-02-08T23:18:47.206Z,36.37
2019-02-08T23:21:17.500Z,41.83
2019-02-08T23:23:47.843Z,37.53
2019-02-08T23:26:19.285Z,37.87
2019-02-08T23:28:49.673Z,38.53
2019-02-08T23:31:20.013Z,36.67
2019-02-08T23:33:51.956Z,35.83
2019-02-08T23:36:22.320Z,36.53
2019-02-08T23:38:52.610Z,37.07
2019-02-08T23:41:23.109Z,37.57
2019-02-08T23:43:53.539Z,29.77
2019-02-08T23:46:24.146Z,37.30
2019-02-08T23:48:54.477Z,34.73
2019-02-08T23:51:24.745Z,47.57
2019-02-08T23:53:55.034Z,36.27
2019-02-08T23:56:25.296Z,38.67
2019-02-08T23:58:55.568Z,32.37
